Time;durP1;ratioP1;P1;durP2;ratioP2;P2;SDS_P1;SDS_P2;PMS_P1;PMS_P2;Temp;Humidity;BMP_temperature;BMP_pressure;BME280_temperature;BME280_humidity;BME280_pressure;Samples;Min_cycle;Max_cycle;Signal;HPM_P1;HPM_P2
2022/11/02 00:00:56;;;;;;;7.68;0.93;;;;;;;7.91;100.00;100410.75;5058590;28;20048;-54
2022/11/02 00:03:22;;;;;;;3.83;0.38;;;;;;;7.88;100.00;100419.03;5053411;28;20028;-54
2022/11/02 00:05:47;;;;;;;1.70;0.13;;;;;;;7.75;100.00;100421.41;5058997;28;20029;-55
2022/11/02 00:08:13;;;;;;;3.85;0.55;;;;;;;7.69;100.00;100420.28;5060834;28;20098;-55
2022/11/02 00:10:38;;;;;;;0.22;0.20;;;;;;;7.78;100.00;100455.38;5051805;28;20470;-51
2022/11/02 00:13:03;;;;;;;3.35;0.20;;;;;;;7.91;100.00;100444.25;5062716;28;20039;-57
2022/11/02 00:15:31;;;;;;;2.20;0.93;;;;;;;7.81;100.00;100449.75;5053768;28;20033;-58
2022/11/02 00:18:11;;;;;;;2.20;0.90;;;;;;;7.62;100.00;100457.09;5061076;28;20036;-56
2022/11/02 00:20:40;;;;;;;1.23;0.00;;;;;;;7.50;100.00;100468.19;5058195;28;20036;-57
2022/11/02 00:23:06;;;;;;;5.97;0.50;;;;;;;7.41;100.00;100472.69;5058663;28;20432;-56
2022/11/02 00:25:32;;;;;;;4.75;1.35;;;;;;;7.39;100.00;100483.41;5056324;28;20391;-57
2022/11/02 00:27:58;;;;;;;5.47;0.80;;;;;;;7.42;100.00;100477.78;5055254;28;20040;-58
2022/11/02 00:30:24;;;;;;;0.73;0.10;;;;;;;7.34;100.00;100484.91;5060425;28;20095;-55
2022/11/02 00:32:50;;;;;;;1.30;0.25;;;;;;;7.31;100.00;100503.72;5056398;28;20535;-57
2022/11/02 00:35:16;;;;;;;1.70;0.73;;;;;;;7.19;100.00;100497.97;5059750;28;20039;-60
2022/11/02 00:37:41;;;;;;;0.85;0.10;;;;;;;7.24;100.00;100495.66;5058527;28;20102;-54
2022/11/02 00:40:07;;;;;;;1.65;0.75;;;;;;;7.28;100.00;100518.06;5060249;28;20055;-52
2022/11/02 00:42:32;;;;;;;1.23;0.25;;;;;;;7.35;100.00;100513.75;5063039;28;20033;-53
2022/11/02 00:44:57;;;;;;;1.30;0.52;;;;;;;7.28;100.00;100522.50;5058122;28;20029;-56
2022/11/02 00:47:23;;;;;;;1.08;0.10;;;;;;;7.26;100.00;100529.78;5062944;28;20043;-57
2022/11/02 00:49:48;;;;;;;2.88;0.10;;;;;;;7.21;100.00;100530.28;5053618;28;20035;-58
2022/11/02 00:52:13;;;;;;;0.77;0.22;;;;;;;7.10;100.00;100526.19;5062976;28;20025;-56
2022/11/02 00:54:39;;;;;;;6.40;0.60;;;;;;;7.07;100.00;100541.50;5064194;28;20024;-57
2022/11/02 00:57:04;;;;;;;4.03;0.00;;;;;;;7.14;100.00;100545.13;5062672;28;20120;-54
2022/11/02 00:59:30;;;;;;;5.38;0.15;;;;;;;7.09;100.00;100550.88;5041095;28;20029;-51
2022/11/02 01:01:55;;;;;;;0.50;0.08;;;;;;;7.02;100.00;100557.81;5063145;28;20473;-54
2022/11/02 01:04:20;;;;;;;2.08;0.20;;;;;;;6.94;100.00;100573.63;5060747;28;20105;-57
2022/11/02 01:06:46;;;;;;;2.22;0.20;;;;;;;6.91;100.00;100581.88;5057961;28;20060;-55
2022/11/02 01:09:13;;;;;;;1.67;0.10;;;;;;;6.81;100.00;100582.03;5060850;28;20048;-55
2022/11/02 01:11:39;;;;;;;4.60;0.00;;;;;;;6.75;100.00;100585.31;5067087;28;20032;-53
2022/11/02 01:14:05;;;;;;;5.78;0.30;;;;;;;6.74;100.00;100595.03;5056813;28;20025;-57
2022/11/02 01:16:31;;;;;;;2.08;0.00;;;;;;;6.72;100.00;100602.28;5060288;28;20024;-57
2022/11/02 01:18:57;;;;;;;6.28;0.10;;;;;;;6.66;100.00;100616.13;5059944;28;20039;-54
2022/11/02 01:21:23;;;;;;;0.20;0.10;;;;;;;6.58;100.00;100612.63;5062887;28;20098;-56
2022/11/02 01:23:49;;;;;;;1.88;0.00;;;;;;;6.41;100.00;100609.97;5050970;28;20083;-54
2022/11/02 01:26:14;;;;;;;2.15;0.05;;;;;;;6.35;100.00;100610.63;5053593;28;20024;-51
2022/11/02 01:28:40;;;;;;;0.25;0.25;;;;;;;6.47;100.00;100625.13;5036136;28;20044;-57
2022/11/02 01:31:07;;;;;;;4.63;0.63;;;;;;;6.55;100.00;100637.47;5051347;28;20033;-55
2022/11/02 01:33:33;;;;;;;1.20;0.05;;;;;;;6.53;100.00;100649.97;5050704;28;20033;-53
2022/11/02 01:36:01;;;;;;;1.60;0.00;;;;;;;6.43;100.00;100647.50;5053384;28;20340;-51
2022/11/02 01:38:27;;;;;;;1.83;0.17;;;;;;;6.35;100.00;100647.50;5052640;28;20029;-54
2022/11/02 01:40:52;;;;;;;1.02;0.00;;;;;;;6.29;100.00;100654.19;5051729;28;20032;-50
2022/11/02 01:43:24;;;;;;;1.25;0.22;;;;;;;6.36;100.00;100661.47;5056948;28;20112;-54
2022/11/02 01:45:54;;;;;;;2.42;0.30;;;;;;;6.40;100.00;100660.16;5044987;28;20041;-50
2022/11/02 01:48:27;;;;;;;2.35;0.75;;;;;;;6.34;100.00;100667.72;5055319;28;20535;-57
2022/11/02 01:50:52;;;;;;;2.08;1.10;;;;;;;6.26;100.00;100680.03;5053549;28;20037;-53
2022/11/02 01:53:18;;;;;;;5.00;1.65;;;;;;;6.20;100.00;100676.22;5066191;28;20466;-55
2022/11/02 01:55:43;;;;;;;0.35;0.00;;;;;;;6.21;100.00;100677.84;5058582;28;20028;-57
2022/11/02 01:58:11;;;;;;;4.95;0.57;;;;;;;6.14;100.00;100687.38;5053987;28;20326;-57
2022/11/02 02:00:37;;;;;;;3.08;1.08;;;;;;;6.06;100.00;100684.69;5060555;28;20075;-53
2022/11/02 02:03:09;;;;;;;1.02;0.10;;;;;;;6.08;100.00;100693.25;5036691;28;20436;-54
2022/11/02 02:05:39;;;;;;;0.70;0.03;;;;;;;6.08;100.00;100696.72;5036130;28;20432;-55
2022/11/02 02:08:07;;;;;;;4.30;1.43;;;;;;;6.13;100.00;100705.97;5053588;28;20118;-54
2022/11/02 02:10:33;;;;;;;4.38;0.25;;;;;;;6.04;100.00;100711.19;5054000;28;20047;-55
2022/11/02 02:12:58;;;;;;;1.08;0.80;;;;;;;5.99;100.00;100720.50;5056321;28;20020;-55
2022/11/02 02:15:31;;;;;;;2.92;0.45;;;;;;;6.02;100.00;100734.22;5071478;28;20462;-56
2022/11/02 02:18:24;;;;;;;4.30;0.55;;;;;;;6.03;100.00;100727.13;5049556;28;20287;-52
2022/11/02 02:21:02;;;;;;;11.65;0.85;;;;;;;5.99;100.00;100733.66;5053096;28;20078;-55
2022/11/02 02:23:52;;;;;;;4.07;1.20;;;;;;;6.02;100.00;100734.22;5053304;28;20025;-54
2022/11/02 02:26:29;;;;;;;5.15;0.57;;;;;;;6.06;100.00;100737.34;5052815;28;20516;-51
2022/11/02 02:29:15;;;;;;;1.42;0.75;;;;;;;6.07;100.00;100749.53;5065936;28;20456;-53
2022/11/02 02:31:52;;;;;;;0.20;0.10;;;;;;;6.01;100.00;100745.69;5059582;28;20119;-52
2022/11/02 02:34:27;;;;;;;0.50;0.22;;;;;;;5.96;100.00;100762.94;5060868;28;20032;-57
2022/11/02 02:37:09;;;;;;;1.95;0.45;;;;;;;5.98;100.00;100759.16;5048243;28;20618;-55
2022/11/02 02:39:48;;;;;;;7.43;0.43;;;;;;;5.95;100.00;100764.75;5062828;28;20040;-54
2022/11/02 02:42:19;;;;;;;0.90;0.08;;;;;;;5.90;100.00;100766.97;5056037;28;20039;-56
2022/11/02 02:45:09;;;;;;;2.55;0.10;;;;;;;5.81;100.00;100768.75;5058678;28;20432;-57
2022/11/02 02:47:38;;;;;;;0.60;0.57;;;;;;;5.77;100.00;100774.44;5060800;28;20029;-57
2022/11/02 02:50:19;;;;;;;3.60;1.10;;;;;;;5.82;100.00;100772.19;5054232;28;20411;-57
2022/11/02 02:52:48;;;;;;;2.30;1.10;;;;;;;5.84;100.00;100771.06;5060226;28;20029;-52
2022/11/02 02:55:19;;;;;;;4.93;1.23;;;;;;;5.82;100.00;100786.16;5048836;28;20029;-51
2022/11/02 02:57:46;;;;;;;1.30;0.00;;;;;;;5.65;100.00;100787.84;5034868;28;20028;-55
2022/11/02 03:00:16;;;;;;;1.48;0.63;;;;;;;5.56;100.00;100788.75;5055340;28;20039;-54
2022/11/02 03:02:59;;;;;;;0.32;0.20;;;;;;;5.54;100.00;100782.81;5055278;28;20021;-54
2022/11/02 03:05:28;;;;;;;1.52;0.28;;;;;;;5.50;100.00;100789.38;5044919;28;20035;-57
2022/11/02 03:07:55;;;;;;;11.88;1.10;;;;;;;5.46;100.00;100788.00;5061808;28;20068;-58
2022/11/02 03:10:48;;;;;;;4.70;0.52;;;;;;;5.50;100.00;100791.13;5059161;28;20347;-57
2022/11/02 03:13:16;;;;;;;2.72;1.38;;;;;;;5.54;100.00;100801.22;5051126;28;20375;-57
2022/11/02 03:15:53;;;;;;;1.58;0.38;;;;;;;5.67;100.00;100812.19;5077124;28;20518;-58
2022/11/02 03:18:37;;;;;;;2.15;0.90;;;;;;;5.66;100.00;100800.03;5060355;28;20382;-56
2022/11/02 03:21:31;;;;;;;0.82;0.15;;;;;;;5.74;100.00;100795.81;5062314;28;20036;-55
2022/11/02 03:24:04;;;;;;;9.77;0.50;;;;;;;5.74;100.00;100801.91;5061519;28;20042;-56
2022/11/02 03:26:42;;;;;;;4.72;1.20;;;;;;;5.77;100.00;100817.38;5054865;28;20024;-56
2022/11/02 03:29:12;;;;;;;2.63;0.70;;;;;;;5.78;100.00;100813.78;5065566;28;20025;-56
2022/11/02 03:32:00;;;;;;;4.15;0.30;;;;;;;5.73;100.00;100825.72;5062733;28;20100;-57
2022/11/02 03:34:47;;;;;;;0.25;0.20;;;;;;;5.69;100.00;100820.75;5052568;28;20041;-56
2022/11/02 03:37:28;;;;;;;5.68;1.17;;;;;;;5.64;100.00;100830.09;5060337;28;20028;-53
2022/11/02 03:40:00;;;;;;;4.30;0.75;;;;;;;5.59;100.00;100834.97;5054916;28;20137;-50
2022/11/02 03:42:29;;;;;;;4.22;1.02;;;;;;;5.57;100.00;100844.81;5063389;28;20102;-52
2022/11/02 03:45:08;;;;;;;4.75;0.15;;;;;;;5.59;100.00;100850.75;5055430;28;20116;-50
2022/11/02 03:47:35;;;;;;;0.75;0.47;;;;;;;5.60;100.00;100855.88;5044566;28;20497;-50
2022/11/02 03:50:05;;;;;;;3.80;0.32;;;;;;;5.65;100.00;100856.25;5056623;28;20033;-52
2022/11/02 03:52:33;;;;;;;4.30;0.68;;;;;;;5.64;100.00;100859.03;5055639;28;20025;-53
2022/11/02 03:55:08;;;;;;;3.45;0.25;;;;;;;5.62;100.00;100856.53;5061404;28;20570;-52
2022/11/02 03:57:41;;;;;;;2.50;0.13;;;;;;;5.53;100.00;100870.59;5058050;28;20490;-52
2022/11/02 04:00:09;;;;;;;0.88;0.00;;;;;;;5.49;100.00;100868.41;5053385;28;20025;-50
2022/11/02 04:02:37;;;;;;;4.03;0.22;;;;;;;5.40;100.00;100873.59;5052206;28;20390;-50
2022/11/02 04:05:03;;;;;;;3.72;0.43;;;;;;;5.33;100.00;100877.75;5058781;28;20021;-54
2022/11/02 04:08:19;;;;;;;1.00;0.10;;;;;;;5.31;100.00;100884.97;5039195;28;20012;-50
2022/11/02 04:10:17;;;;;;;1.67;0.77;;;;;;;5.19;100.00;100880.91;5059529;28;20036;-51
2022/11/02 04:15:27;;;;;;;3.92;0.38;;;;;;;5.06;100.00;100896.16;5051299;28;20237;-57
2022/11/02 04:20:36;;;;;;;2.88;0.35;;;;;;;5.00;100.00;100895.75;5047986;28;20109;-53
2022/11/02 04:25:45;;;;;;;4.72;0.35;;;;;;;5.07;100.00;100900.47;5051831;28;20456;-56
2022/11/02 04:28:10;;;;;;;5.25;0.77;;;;;;;5.11;100.00;100910.53;5052683;28;20079;-53
2022/11/02 04:30:36;;;;;;;4.43;0.75;;;;;;;5.06;100.00;100915.41;5059832;28;20112;-53
2022/11/02 04:35:45;;;;;;;6.80;1.65;;;;;;;4.92;100.00;100916.69;5050752;28;20068;-56
2022/11/02 04:41:40;;;;;;;4.53;0.88;;;;;;;4.89;100.00;100916.97;5049949;28;20040;-54
2022/11/02 04:43:39;;;;;;;1.92;0.45;;;;;;;4.88;100.00;100919.72;5063287;28;20039;-53
2022/11/02 04:46:05;;;;;;;5.82;0.57;;;;;;;4.87;100.00;100929.41;5053155;28;21482;-56
2022/11/02 04:48:30;;;;;;;3.67;1.00;;;;;;;4.84;100.00;100921.84;5051296;28;20032;-52
2022/11/02 04:50:57;;;;;;;2.90;0.55;;;;;;;4.83;100.00;100930.69;5052677;28;20110;-51
2022/11/02 04:53:22;;;;;;;5.57;1.33;;;;;;;4.77;100.00;100932.06;5053214;28;20028;-55
2022/11/02 04:55:47;;;;;;;1.05;0.75;;;;;;;4.66;100.00;100939.31;5037923;28;20029;-56
2022/11/02 04:58:13;;;;;;;1.73;0.22;;;;;;;4.62;100.00;100932.66;5051284;28;20029;-55
2022/11/02 05:00:38;;;;;;;3.30;1.48;;;;;;;4.56;100.00;100942.75;5049056;28;20029;-53
2022/11/02 05:03:04;;;;;;;0.43;0.10;;;;;;;4.52;100.00;100953.72;5059183;28;20028;-55
2022/11/02 05:05:30;;;;;;;0.77;0.30;;;;;;;4.45;100.00;100944.72;5053935;28;20356;-50
2022/11/02 05:07:55;;;;;;;2.67;0.10;;;;;;;4.50;100.00;100948.59;5060394;28;20055;-52
2022/11/02 05:10:20;;;;;;;3.88;0.10;;;;;;;4.59;100.00;100958.25;5052264;28;20424;-53
2022/11/02 05:12:46;;;;;;;3.92;1.40;;;;;;;4.59;100.00;100963.50;5039736;28;20039;-50
2022/11/02 05:15:11;;;;;;;5.68;0.70;;;;;;;4.48;100.00;100955.75;5060695;28;20085;-54
2022/11/02 05:17:36;;;;;;;5.40;0.43;;;;;;;4.45;100.00;100961.31;5062043;28;20024;-55
2022/11/02 05:20:03;;;;;;;2.25;0.68;;;;;;;4.48;100.00;100966.28;5067033;28;20029;-54
2022/11/02 05:22:29;;;;;;;1.05;0.70;;;;;;;4.40;100.00;100968.75;5065189;28;20056;-56
2022/11/02 05:24:55;;;;;;;2.17;0.85;;;;;;;4.47;100.00;100963.81;5054156;28;20103;-57
2022/11/02 05:27:20;;;;;;;9.27;0.90;;;;;;;4.50;100.00;100950.38;5046873;28;20097;-51
2022/11/02 05:29:45;;;;;;;3.40;0.25;;;;;;;4.47;100.00;100956.75;5066592;28;20044;-55
2022/11/02 05:32:11;;;;;;;2.30;0.30;;;;;;;4.37;100.00;100962.00;5054982;28;20025;-53
2022/11/02 05:34:36;;;;;;;1.98;0.05;;;;;;;4.32;100.00;100958.13;5059611;28;20125;-52
2022/11/02 05:37:01;;;;;;;7.82;0.93;;;;;;;4.42;100.00;100966.84;5060423;28;20020;-55
2022/11/02 05:39:27;;;;;;;4.13;1.70;;;;;;;4.51;100.00;100962.53;5067269;28;20071;-53
2022/11/02 05:41:52;;;;;;;1.05;0.10;;;;;;;4.67;100.00;100960.16;5067379;28;20060;-57
2022/11/02 05:44:17;;;;;;;4.38;0.50;;;;;;;4.79;100.00;100968.72;5063868;28;20037;-55
2022/11/02 05:46:43;;;;;;;2.35;0.25;;;;;;;4.86;100.00;100969.81;5066488;28;20477;-52
2022/11/02 05:49:08;;;;;;;3.70;0.77;;;;;;;4.93;100.00;100965.66;5067217;28;20541;-57
2022/11/02 05:51:33;;;;;;;1.75;0.00;;;;;;;4.86;100.00;100969.81;5042635;28;20058;-55
2022/11/02 05:53:59;;;;;;;9.45;0.75;;;;;;;4.83;100.00;100975.38;5061024;28;20402;-57
2022/11/02 05:56:24;;;;;;;1.27;0.10;;;;;;;4.85;100.00;100983.91;5041333;28;20024;-54
2022/11/02 05:58:50;;;;;;;2.75;0.08;;;;;;;4.79;100.00;100981.84;5064378;28;20355;-53
2022/11/02 06:01:16;;;;;;;2.88;0.52;;;;;;;4.79;100.00;100981.84;5057519;28;21387;-52
2022/11/02 06:03:41;;;;;;;4.20;0.45;;;;;;;4.77;100.00;100970.66;5060969;28;20107;-55
2022/11/02 06:06:09;;;;;;;2.53;0.10;;;;;;;4.78;100.00;100970.53;5052012;28;20104;-57
2022/11/02 06:08:35;;;;;;;4.80;0.70;;;;;;;4.80;100.00;100960.72;5064172;28;20060;-54
2022/11/02 06:11:05;;;;;;;1.55;0.75;;;;;;;4.84;100.00;100963.88;5051482;28;20064;-56
2022/11/02 06:13:31;;;;;;;4.13;0.45;;;;;;;4.84;100.00;100961.25;5060742;28;20028;-53
2022/11/02 06:16:00;;;;;;;4.75;0.20;;;;;;;4.95;100.00;100963.69;5062728;28;20033;-55
2022/11/02 06:18:25;;;;;;;4.88;2.05;;;;;;;4.93;100.00;100957.78;5050293;28;20067;-55
2022/11/02 06:20:50;;;;;;;5.45;0.65;;;;;;;4.92;100.00;100963.97;5057193;28;20458;-54
2022/11/02 06:23:17;;;;;;;5.20;2.10;;;;;;;4.83;100.00;100959.59;5054071;28;20032;-53
2022/11/02 06:25:48;;;;;;;4.20;2.20;;;;;;;4.82;100.00;100957.91;5060267;28;20048;-53
2022/11/02 06:28:14;;;;;;;8.77;0.63;;;;;;;4.77;100.00;100960.16;5066733;28;20039;-53
2022/11/02 06:30:41;;;;;;;4.07;0.22;;;;;;;4.73;100.00;100964.88;5049197;28;20406;-55
2022/11/02 06:33:06;;;;;;;7.70;0.50;;;;;;;4.83;100.00;100967.47;5057100;28;20089;-56
2022/11/02 06:35:32;;;;;;;7.22;0.40;;;;;;;4.86;100.00;100969.81;5056787;28;20478;-52
2022/11/02 06:37:57;;;;;;;3.05;0.10;;;;;;;4.79;100.00;100969.53;5052075;28;20059;-53
2022/11/02 06:40:23;;;;;;;8.20;0.47;;;;;;;4.75;100.00;100977.84;5054504;28;20820;-55
2022/11/02 06:42:54;;;;;;;1.60;0.03;;;;;;;4.68;100.00;100971.50;5050810;28;20733;-55
2022/11/02 06:45:19;;;;;;;1.27;0.57;;;;;;;4.64;100.00;100976.19;5058086;28;20516;-52
2022/11/02 06:47:47;;;;;;;3.80;1.02;;;;;;;4.68;100.00;100971.50;5064111;28;20029;-55
2022/11/02 06:50:13;;;;;;;16.98;1.25;;;;;;;4.72;100.00;100981.56;5056515;28;20091;-56
2022/11/02 06:52:43;;;;;;;0.35;0.20;;;;;;;4.75;100.00;100980.47;5042092;28;20033;-57
2022/11/02 06:55:09;;;;;;;5.90;0.90;;;;;;;4.80;100.00;100988.75;5055035;28;20024;-55
2022/11/02 06:57:36;;;;;;;4.53;0.95;;;;;;;4.81;100.00;100987.81;5061012;28;20147;-55
2022/11/02 07:00:05;;;;;;;5.22;0.55;;;;;;;4.75;100.00;100989.22;5052211;28;20021;-56
2022/11/02 07:02:31;;;;;;;6.53;2.83;;;;;;;4.71;100.00;100987.81;5046084;28;20477;-54
2022/11/02 07:04:56;;;;;;;2.58;0.95;;;;;;;4.70;100.00;100983.53;5052956;28;20036;-52
2022/11/02 07:07:22;;;;;;;2.70;0.82;;;;;;;4.66;100.00;100994.47;5056733;28;20036;-52
2022/11/02 07:09:47;;;;;;;4.03;0.40;;;;;;;4.58;100.00;100984.66;5054830;28;20041;-53
2022/11/02 07:12:13;;;;;;;3.03;0.70;;;;;;;4.53;100.00;100987.69;5049796;28;20029;-53
2022/11/02 07:14:38;;;;;;;7.03;1.63;;;;;;;4.41;100.00;100990.59;5059890;28;20117;-52
2022/11/02 07:17:04;;;;;;;5.95;0.60;;;;;;;4.37;100.00;100985.63;5056250;28;20413;-55
2022/11/02 07:19:29;;;;;;;4.65;1.40;;;;;;;4.40;100.00;100986.31;5053727;28;20102;-51
2022/11/02 07:21:54;;;;;;;6.85;0.88;;;;;;;4.34;100.00;100991.16;5057874;28;20394;-52
2022/11/02 07:24:20;;;;;;;1.83;0.52;;;;;;;4.29;100.00;100992.53;5059215;28;20041;-50
2022/11/02 07:26:49;;;;;;;1.67;0.20;;;;;;;4.21;100.00;100980.09;5058482;28;20619;-53
2022/11/02 07:29:15;;;;;;;4.97;0.75;;;;;;;4.07;100.00;100978.69;5059750;28;20570;-54
2022/11/02 07:31:40;;;;;;;2.35;0.25;;;;;;;3.98;100.00;100984.78;5057294;28;20028;-53
2022/11/02 07:34:06;;;;;;;0.68;0.32;;;;;;;3.94;100.00;100992.06;5059366;28;20068;-55
2022/11/02 07:36:31;;;;;;;4.93;0.30;;;;;;;3.91;100.00;100973.16;5041140;28;20044;-56
2022/11/02 07:38:56;;;;;;;7.63;1.05;;;;;;;3.90;100.00;100984.63;5050962;28;20450;-54
2022/11/02 07:41:22;;;;;;;4.22;0.50;;;;;;;3.84;100.00;100987.78;5049546;28;20817;-54
2022/11/02 07:43:47;;;;;;;6.95;0.32;;;;;;;3.76;100.00;100991.06;5053662;28;20044;-55
2022/11/02 07:46:12;;;;;;;5.32;0.95;;;;;;;3.74;100.00;101000.84;5051660;28;20032;-55
2022/11/02 07:48:38;;;;;;;4.57;0.10;;;;;;;3.71;100.00;101009.81;5058737;28;20033;-53
2022/11/02 07:51:04;;;;;;;8.13;0.60;;;;;;;3.68;100.00;101004.84;5059613;28;20033;-55
2022/11/02 07:53:29;;;;;;;3.88;0.65;;;;;;;3.70;100.00;101004.72;5051034;28;20143;-56
2022/11/02 07:55:55;;;;;;;1.52;0.43;;;;;;;3.72;100.00;100998.38;5059153;28;20123;-57
2022/11/02 07:58:20;;;;;;;4.05;0.20;;;;;;;3.72;100.00;100997.56;5048716;28;20111;-56
2022/11/02 08:00:45;;;;;;;0.77;0.25;;;;;;;3.77;100.00;101002.38;5058467;28;20036;-53
2022/11/02 08:03:11;;;;;;;6.70;0.77;;;;;;;3.81;100.00;100998.53;5056292;28;20027;-54
2022/11/02 08:05:39;;;;;;;4.03;0.30;;;;;;;3.91;100.00;101004.63;5050191;28;20455;-52
2022/11/02 08:08:07;;;;;;;0.90;0.10;;;;;;;3.99;100.00;101009.22;5060722;28;20085;-56
2022/11/02 08:10:34;;;;;;;5.53;0.50;;;;;;;4.10;100.00;101009.91;5058663;28;20025;-53
2022/11/02 08:13:01;;;;;;;0.82;0.73;;;;;;;4.26;100.00;101019.91;5041616;28;20427;-52
2022/11/02 08:15:26;;;;;;;1.77;0.55;;;;;;;4.39;100.00;101017.00;5054902;28;20044;-57
2022/11/02 08:18:04;;;;;;;6.53;0.38;;;;;;;4.69;100.00;101012.56;5051285;28;20063;-54
2022/11/02 08:20:31;;;;;;;3.03;1.38;;;;;;;4.92;100.00;101015.72;5046631;28;21565;-54
2022/11/02 08:22:56;;;;;;;3.25;1.27;;;;;;;5.10;100.00;101016.66;5053573;28;20484;-53
2022/11/02 08:25:23;;;;;;;13.15;0.75;;;;;;;5.30;100.00;101022.69;5045950;28;20028;-53
2022/11/02 08:27:48;;;;;;;5.82;0.50;;;;;;;5.52;100.00;101016.22;5060579;28;20048;-57
2022/11/02 08:30:14;;;;;;;2.40;0.20;;;;;;;5.66;100.00;101017.56;5049689;28;20025;-52
2022/11/02 08:32:39;;;;;;;6.13;0.63;;;;;;;5.84;100.00;101017.63;5065855;28;20036;-55
2022/11/02 08:35:05;;;;;;;4.60;1.25;;;;;;;6.01;100.00;101026.53;5058322;28;20033;-56
2022/11/02 08:37:30;;;;;;;4.80;0.60;;;;;;;6.18;100.00;101030.19;5054677;28;20024;-54
2022/11/02 08:39:55;;;;;;;4.35;1.45;;;;;;;6.36;100.00;101023.13;5052188;28;20037;-52
2022/11/02 08:42:21;;;;;;;2.35;0.40;;;;;;;6.51;100.00;101020.78;5048507;28;20060;-51
2022/11/02 08:44:46;;;;;;;11.57;1.98;;;;;;;6.56;100.00;101015.91;5041725;28;20079;-52
2022/11/02 08:47:12;;;;;;;5.57;0.40;;;;;;;6.67;100.00;101018.28;5052288;28;20057;-55
2022/11/02 08:49:37;;;;;;;9.48;0.57;;;;;;;6.83;100.00;101019.41;5039763;28;20024;-53
2022/11/02 08:52:03;;;;;;;7.88;2.20;;;;;;;6.93;100.00;101015.69;5060925;28;20021;-55
2022/11/02 08:54:28;;;;;;;6.22;1.90;;;;;;;7.08;100.00;101012.50;5059372;28;20028;-53
2022/11/02 08:56:53;;;;;;;8.27;0.90;;;;;;;7.19;100.00;101004.31;5058360;28;20027;-58
2022/11/02 08:59:19;;;;;;;10.35;1.15;;;;;;;7.30;100.00;101001.41;5056507;28;20039;-57
2022/11/02 09:01:44;;;;;;;5.95;1.75;;;;;;;7.46;100.00;101000.69;5067090;28;20082;-56
2022/11/02 09:04:09;;;;;;;9.38;1.35;;;;;;;7.51;100.00;100998.41;5059232;28;20103;-56
2022/11/02 09:06:35;;;;;;;11.80;1.10;;;;;;;7.67;100.00;100996.78;5049484;28;20051;-56
2022/11/02 09:09:00;;;;;;;3.33;0.68;;;;;;;7.83;100.00;100991.56;5049163;28;20087;-56
2022/11/02 09:11:26;;;;;;;9.88;0.57;;;;;;;7.96;100.00;100981.38;5052249;28;20025;-54
2022/11/02 09:13:51;;;;;;;7.68;2.28;;;;;;;8.09;100.00;100991.47;5060941;28;20036;-52
2022/11/02 09:16:16;;;;;;;8.00;0.93;;;;;;;8.20;100.00;100993.78;5060528;28;20024;-57
2022/11/02 09:18:42;;;;;;;9.45;3.78;;;;;;;8.33;100.00;100990.66;5054049;28;20020;-56
2022/11/02 09:21:07;;;;;;;3.65;0.80;;;;;;;8.48;100.00;100981.13;5043104;28;20029;-55
2022/11/02 09:23:33;;;;;;;8.32;1.80;;;;;;;8.66;100.00;100975.69;5064293;28;20044;-56
2022/11/02 09:25:59;;;;;;;12.85;1.88;;;;;;;8.78;100.00;100965.59;5064479;28;20036;-58
2022/11/02 09:28:24;;;;;;;13.13;4.28;;;;;;;8.77;100.00;100963.94;5057966;28;20083;-53
2022/11/02 09:30:50;;;;;;;5.78;0.70;;;;;;;8.74;100.00;100965.09;5063214;28;20073;-58
2022/11/02 09:33:15;;;;;;;8.10;1.35;;;;;;;8.82;100.00;100966.91;5054566;28;20489;-58
2022/11/02 09:35:43;;;;;;;6.20;1.52;;;;;;;8.90;100.00;100974.00;5062101;28;20036;-54
2022/11/02 09:38:09;;;;;;;16.35;1.23;;;;;;;8.90;100.00;100958.94;5049757;28;20031;-52
2022/11/02 09:40:48;;;;;;;4.13;0.98;;;;;;;8.94;100.00;100965.56;5064610;28;20402;-54
2022/11/02 09:43:23;;;;;;;19.63;1.45;;;;;;;9.04;100.00;100956.63;5050193;28;20514;-51
2022/11/02 09:45:58;;;;;;;9.98;1.25;;;;;;;9.07;100.00;100945.72;5049075;28;20056;-55
2022/11/02 09:48:32;;;;;;;10.30;1.55;;;;;;;9.15;100.00;100935.09;5053631;28;20033;-51
2022/11/02 09:51:11;;;;;;;7.35;1.13;;;;;;;9.25;100.00;100929.63;5064747;28;20035;-51
2022/11/02 09:53:51;;;;;;;11.23;0.70;;;;;;;9.49;100.00;100923.38;5057237;28;20514;-51
2022/11/02 09:56:18;;;;;;;9.43;1.10;;;;;;;9.56;100.00;100925.16;5072193;28;20031;-55
2022/11/02 09:58:49;;;;;;;8.70;1.77;;;;;;;9.57;100.00;100923.34;5058626;28;20024;-52
2022/11/02 10:01:35;;;;;;;7.28;0.88;;;;;;;9.66;100.00;100922.31;5068117;28;20074;-57
2022/11/02 10:04:20;;;;;;;7.28;0.30;;;;;;;9.80;100.00;100918.06;5041448;28;20025;-58
2022/11/02 10:06:55;;;;;;;2.30;0.65;;;;;;;9.90;100.00;100923.97;5060270;28;20074;-58
2022/11/02 10:09:35;;;;;;;11.73;2.42;;;;;;;10.11;100.00;100910.06;5057476;28;20497;-58
2022/11/02 10:12:41;;;;;;;14.00;3.15;;;;;;;10.31;100.00;100910.44;5060714;28;20493;-58
2022/11/02 10:15:17;;;;;;;19.15;3.55;;;;;;;10.39;100.00;100894.47;4987679;28;20031;-58
2022/11/02 10:17:45;;;;;;;9.07;0.73;;;;;;;10.52;100.00;100891.22;5048219;28;20048;-58
2022/11/02 10:20:37;;;;;;;5.10;0.95;;;;;;;10.73;100.00;100873.75;5064362;28;20028;-55
2022/11/02 10:23:08;;;;;;;8.65;1.95;;;;;;;10.97;100.00;100870.84;5062429;28;20512;-56
2022/11/02 10:25:36;;;;;;;18.23;2.55;;;;;;;11.26;100.00;100861.22;5067859;28;20115;-59
2022/11/02 10:28:17;;;;;;;10.35;1.50;;;;;;;11.55;100.00;100850.50;5035784;28;20045;-59
2022/11/02 10:30:43;;;;;;;;;;;;;;;11.73;100.00;100822.69;5056374;28;20028;-54
2022/11/02 10:33:22;;;;;;;6.43;0.98;;;;;;;11.99;100.00;100800.88;5061020;28;19920;-53
2022/11/02 10:35:59;;;;;;;12.38;1.67;;;;;;;12.18;100.00;100799.38;5051756;28;20438;-59
2022/11/02 10:39:02;;;;;;;10.30;2.10;;;;;;;12.38;100.00;100784.38;5055729;28;20486;-51
2022/11/02 10:41:59;;;;;;;16.63;3.15;;;;;;;12.46;100.00;100767.44;5058245;28;20044;-56
2022/11/02 10:44:27;;;;;;;9.50;1.42;;;;;;;12.57;100.00;100766.06;5061493;28;20033;-56
2022/11/02 10:46:52;;;;;;;11.77;2.65;;;;;;;12.72;100.00;100756.09;5055170;28;20316;-57
2022/11/02 10:49:26;;;;;;;11.52;2.13;;;;;;;12.76;100.00;100746.72;5052519;28;20044;-49
2022/11/02 10:51:52;;;;;;;19.25;2.08;;;;;;;12.86;100.00;100749.81;5066866;28;20036;-55
2022/11/02 10:54:18;;;;;;;8.75;1.58;;;;;;;12.97;100.00;100731.63;5057101;28;20028;-58
2022/11/02 10:56:46;;;;;;;12.82;1.40;;;;;;;12.79;100.00;100733.00;5057144;28;20433;-55
2022/11/02 10:59:16;;;;;;;17.48;1.70;;;;;;;12.69;100.00;100732.56;5059715;28;20029;-55
2022/11/02 11:01:46;;;;;;;10.80;2.55;;;;;;;12.62;100.00;100708.59;5049988;28;20025;-58
2022/11/02 11:04:26;;;;;;;11.53;1.57;;;;;;;12.74;100.00;100706.19;5058865;28;20036;-58
2022/11/02 11:06:53;;;;;;;3.72;1.48;;;;;;;12.83;100.00;100712.13;5052368;28;20277;-58
2022/11/02 11:09:24;;;;;;;9.15;2.17;;;;;;;12.85;100.00;100697.59;5059743;28;20029;-54
2022/11/02 11:12:05;;;;;;;5.05;1.02;;;;;;;12.84;100.00;100685.34;5060409;28;20035;-58
2022/11/02 11:15:00;;;;;;;10.27;1.57;;;;;;;12.80;100.00;100686.78;5057545;28;20123;-58
2022/11/02 11:17:29;;;;;;;8.73;2.35;;;;;;;12.72;100.00;100684.25;5056765;28;20037;-57
2022/11/02 11:19:56;;;;;;;5.80;0.77;;;;;;;12.67;100.00;100678.72;5061442;28;20462;-59
2022/11/02 11:22:29;;;;;;;10.68;2.28;;;;;;;12.70;100.00;100689.00;5057567;28;20036;-58
2022/11/02 11:25:21;;;;;;;5.75;1.30;;;;;;;12.86;100.00;100674.50;5060973;28;20037;-59
2022/11/02 11:27:55;;;;;;;7.35;1.67;;;;;;;13.00;100.00;100678.81;5055427;28;20136;-48
2022/11/02 11:30:36;;;;;;;8.85;1.63;;;;;;;13.12;100.00;100662.25;5051550;28;20477;-49
2022/11/02 11:33:04;;;;;;;6.78;1.33;;;;;;;13.07;100.00;100658.34;5048477;28;20059;-50
2022/11/02 11:35:38;;;;;;;7.15;0.80;;;;;;;13.14;100.00;100642.41;5064164;28;20016;-52
2022/11/02 11:38:13;;;;;;;13.00;1.75;;;;;;;13.14;100.00;100636.22;5058554;28;20404;-50
2022/11/02 11:40:43;;;;;;;13.02;3.05;;;;;;;13.10;100.00;100619.88;5061134;28;20021;-51
2022/11/02 11:43:12;;;;;;;9.02;1.88;;;;;;;13.14;100.00;100621.09;5063954;28;20028;-54
2022/11/02 11:45:37;;;;;;;6.95;0.75;;;;;;;13.16;100.00;100616.38;5054529;28;20025;-54
2022/11/02 11:48:36;;;;;;;7.97;1.52;;;;;;;13.15;100.00;100605.94;5052595;28;20029;-53